Aidamar — ICSJ — position and weather

sailwx.info

Track history (hours):
 
Tides and Currents Weather Stations Pressure Air Temp Water Temp Dewpoint Dewpoint Depression Visibility Wind Speed Wind Dir Waves Ship Positions

Aidamar

Last reported at 2017-May-29 03:22 UTC. Time now 2017-May-29 18:56 UTC.
Position N 59°30' E 024°01'.

Length 253 m; draft 7.3 m.

Type: Passenger vessel. MMSI: 247312900.

Date/timePositionNaut miles runAvg speedWind from/ knotsBaromVisibWave heightAir tempDewpointWater temp
2017-May-29 03:22N 59°30' E 024°01'614.6
2017-May-29 02:59N 59°30' E 023°50'714.4
2017-May-29 02:30N 59°30' E 023°37'714.2
2017-May-29 01:59N 59°30' E 023°22'714.4
2017-May-29 01:30N 59°29' E 023°09'714.5
2017-May-29 01:01N 59°28' E 022°55'21314.7
2017-May-28 10:31N 56°47' E 018°29'013.7
2017-May-28 10:30N 56°47' E 018°29'815.0
2017-May-28 09:57N 56°42' E 018°17'715.0
2017-May-28 09:30N 56°38' E 018°07'815.1
2017-May-28 09:00N 56°33' E 017°56'815.2
2017-May-28 08:30N 56°29' E 017°46'815.1
2017-May-28 07:59N 56°24' E 017°34'715.1
2017-May-28 07:30N 56°19' E 017°24'815.4
2017-May-28 07:00N 56°15' E 017°13'815.2
2017-May-28 06:30N 56°10' E 017°03'715.1
2017-May-28 06:01N 56°05' E 016°52'815.1
2017-May-28 05:30N 56°02' E 016°40'815.3
2017-May-28 05:00N 55°58' E 016°28'815.6
2017-May-28 04:30N 55°54' E 016°16'815.6
2017-May-28 04:01N 55°50' E 016°05'815.5
2017-May-28 03:30N 55°46' E 015°53'815.4
2017-May-28 03:00N 55°41' E 015°42'815.3
2017-May-28 02:31N 55°38' E 015°30'815.3
2017-May-28 02:00N 55°34' E 015°18'816.0
2017-May-28 01:31N 55°30' E 015°05'916.6
2017-May-28 01:00N 55°26' E 014°52'816.7
2017-May-28 00:30N 55°24' E 014°39'816.7
2017-May-28 00:00N 55°17' E 014°29'816.6
2017-May-27 23:30N 55°11' E 014°20'816.8
2017-May-27 23:00N 55°04' E 014°11'816.4
2017-May-27 22:31N 54°60' E 013°59'1016.9
2017-May-27 21:57N 54°57' E 013°44'715.8
2017-May-27 21:29N 54°54' E 013°31'1915.5
2017-May-27 20:16N 54°49' E 013°00'415.7
2017-May-27 20:00N 54°47' E 012°54'815.2
2017-May-27 19:28N 54°44' E 012°41'715.3
2017-May-27 19:00N 54°40' E 012°30'815.7
2017-May-27 18:30N 54°36' E 012°19'1515.6
2017-May-27 17:31N 54°22' E 012°08'115.5
2017-May-27 17:29N 54°21' E 012°08'11 0.8
2017-May-27 04:58N 54°11' E 012°06'1 1.1
2017-May-27 04:29N 54°11' E 012°05'15 8.9
2017-May-27 02:47N 54°26' E 012°05'413.3
2017-May-27 02:31N 54°28' E 012°10'2213.9
2017-May-27 00:58N 54°44' E 012°35'714.6
2017-May-27 00:29N 54°48' E 012°46'3015.8
2017-May-26 22:35N 54°58' E 013°35'216.1
2017-May-26 22:27N 54°59' E 013°38'715.9
2017-May-26 22:00N 55°01' E 013°50'714.8
2017-May-26 21:30N 55°04' E 014°02'714.6
2017-May-26 21:00N 55°09' E 014°11'815.9
2017-May-26 20:31N 55°15' E 014°20'815.4
2017-May-26 20:01N 55°21' E 014°28'714.8
2017-May-26 19:30N 55°27' E 014°38'917.1
2017-May-26 19:00N 55°31' E 014°51'612.9
2017-May-26 18:30N 55°34' E 015°01'815.1
2017-May-26 18:01N 55°38' E 015°12'815.3
2017-May-26 17:31N 55°42' E 015°24'815.4
2017-May-26 17:01N 55°46' E 015°36'815.3
2017-May-26 16:31N 55°49' E 015°48'815.5
2017-May-26 16:01N 55°53' E 016°00'815.5
2017-May-26 15:31N 55°56' E 016°12'815.5
2017-May-26 15:01N 56°00' E 016°24'1514.9
2017-May-26 14:01N 56°09' E 016°45'815.4
2017-May-26 13:31N 56°17' E 016°50'815.9
2017-May-26 13:01N 56°24' E 016°55'917.0
2017-May-26 12:30N 56°32' E 017°01'17515.7
2017-May-26 01:24N 59°07' E 019°31'716.9
2017-May-26 00:58N 59°14' E 019°39'816.9
2017-May-26 00:30N 59°20' E 019°46'1216.3
2017-May-25 23:47N 59°31' E 019°56'1214.8
2017-May-25 22:58N 59°42' E 019°48'714.6
2017-May-25 22:30N 59°45' E 019°36'714.8
2017-May-25 22:00N 59°46' E 019°21'714.1
2017-May-25 21:30N 59°43' E 019°08'714.5
2017-May-25 21:00N 59°40' E 018°56'510.7
2017-May-25 20:31N 59°36' E 018°48'610.9
2017-May-25 20:00N 59°34' E 018°38'5 9.6
2017-May-25 19:30N 59°31' E 018°30'511.1
2017-May-25 19:00N 59°26' E 018°24'510.0
2017-May-25 18:30N 59°22' E 018°27'5 9.1
2017-May-25 18:00N 59°22' E 018°18'5 9.6
2017-May-25 17:30N 59°20' E 018°09'1 1.2
2017-May-25 16:56N 59°21' E 018°08'0 0.0
2017-May-25 16:26N 59°21' E 018°08'0 0.0
2017-May-25 15:59N 59°21' E 018°08'0 0.0
2017-May-25 15:30N 59°21' E 018°08'0 0.0
2017-May-25 14:45N 59°21' E 018°08'0 0.0
2017-May-25 14:27N 59°21' E 018°08'0 0.0
2017-May-25 13:27N 59°21' E 018°08'0 0.0
2017-May-25 12:57N 59°21' E 018°08'0 0.0
2017-May-25 12:23N 59°21' E 018°08'0 0.0
2017-May-25 11:58N 59°21' E 018°08'0 0.0
2017-May-25 11:27N 59°21' E 018°08'0 0.0
2017-May-25 10:51N 59°21' E 018°08'0 0.0
2017-May-25 10:27N 59°21' E 018°08'0 0.0
2017-May-25 09:57N 59°21' E 018°08'0 0.0
2017-May-25 09:26N 59°21' E 018°08'0 0.0
2017-May-25 08:57N 59°21' E 018°08'0 0.0
2017-May-25 08:27N 59°21' E 018°08'0 0.0
2017-May-25 08:00N 59°21' E 018°08'0 0.7
2017-May-25 07:30N 59°21' E 018°08'4 7.9
2017-May-25 07:00N 59°22' E 018°16'5 9.6
2017-May-25 06:30N 59°22' E 018°25'4 7.4
2017-May-25 06:00N 59°25' E 018°24'610.1
2017-May-25 05:22N 59°31' E 018°30'4 9.7
2017-May-25 05:01N 59°33' E 018°36'610.6
2017-May-25 04:26N 59°36' E 018°46'512.1
2017-May-25 04:00N 59°39' E 018°54'611.5
2017-May-25 03:30N 59°42' E 019°04'815.7
2017-May-25 02:59N 59°45' E 019°19'510.0
2017-May-25 02:27N 59°47' E 019°29'714.8
2017-May-25 02:00N 59°48' E 019°42'814.3
2017-May-25 01:25N 59°42' E 019°55'4115.5
2017-May-24 22:45N 59°32' E 021°14'1016.7
2017-May-24 22:10N 59°30' E 021°33'316.3
2017-May-24 22:00N 59°30' E 021°38'816.3
2017-May-24 21:31N 59°29' E 021°54'1016.4
2017-May-24 20:55N 59°26' E 022°12'3116.0
2017-May-24 18:57N 59°36' E 023°11'716.5
2017-May-24 18:30N 59°38' E 023°25'916.3
2017-May-24 17:59N 59°41' E 023°41'816.4
2017-May-24 17:31N 59°44' E 023°56'816.5
2017-May-24 17:00N 59°47' E 024°11'1016.4
2017-May-24 16:24N 59°51' E 024°29'57 3.7
2017-May-24 01:14N 59°60' E 026°21'416.1
2017-May-24 01:00N 60°01' E 026°29'1015.7
2017-May-24 00:23N 60°01' E 026°48'716.1
2017-May-23 23:59N 59°59' E 027°00'816.0
2017-May-23 23:30N 60°03' E 027°14'816.3
2017-May-23 23:00N 60°07' E 027°29'816.2
2017-May-23 22:30N 60°11' E 027°42'815.4
2017-May-23 22:00N 60°11' E 027°58'816.2
2017-May-23 21:30N 60°08' E 028°13'815.8
2017-May-23 21:00N 60°04' E 028°27'815.8
2017-May-23 20:31N 60°03' E 028°42'816.1
2017-May-23 20:01N 60°02' E 028°58'816.1
2017-May-23 19:30N 60°02' E 029°15'1612.6
2017-May-23 18:14N 59°59' E 029°46'2 9.1
2017-May-23 17:59N 59°57' E 029°50'510.9
2017-May-23 17:30N 59°55' E 029°59'5 9.1
2017-May-23 17:00N 59°57' E 030°08'2 3.6
2017-May-23 16:29N 59°57' E 030°12'0 0.0
2017-May-23 15:59N 59°57' E 030°12'0 0.0
2017-May-23 15:29N 59°57' E 030°12'0 0.0
2017-May-23 14:59N 59°57' E 030°12'0 0.0
2017-May-23 13:58N 59°57' E 030°12'0 0.0
2017-May-23 13:28N 59°57' E 030°12'0 0.0
2017-May-23 12:58N 59°57' E 030°12'0 0.0
2017-May-23 12:30N 59°57' E 030°12'0 0.0
2017-May-23 11:57N 59°57' E 030°12'0 0.0
2017-May-23 11:30N 59°57' E 030°12'0 0.0
2017-May-23 10:57N 59°57' E 030°12'0 0.0
2017-May-23 10:30N 59°57' E 030°12'0 0.0
2017-May-23 10:01N 59°57' E 030°12'0 0.0
2017-May-23 09:29N 59°57' E 030°12'0 0.0
2017-May-23 08:55N 59°57' E 030°12'0 0.0
2017-May-23 08:30N 59°57' E 030°12'0 0.0
2017-May-23 08:00N 59°57' E 030°12'0 0.0
2017-May-23 07:28N 59°57' E 030°12'0 0.0
2017-May-23 06:55N 59°57' E 030°12'0 0.0
2017-May-23 06:25N 59°57' E 030°12'0 0.0
2017-May-23 05:58N 59°57' E 030°12'0 0.0
2017-May-23 05:25N 59°57' E 030°12'0 0.0
2017-May-23 04:58N 59°57' E 030°12'0 0.0
2017-May-23 04:30N 59°57' E 030°12'1 2.6
2017-May-23 04:00N 59°57' E 030°09'510.2
2017-May-23 03:30N 59°55' E 029°59'611.7
2017-May-23 03:00N 59°58' E 029°48'5 9.6
2017-May-23 02:30N 59°60' E 029°40'811.8
2017-May-23 01:50N 60°01' E 029°24'1215.3
2017-May-23 01:04N 60°02' E 029°01'515.6
2017-May-23 00:44N 60°02' E 028°51'415.9
2017-May-23 00:30N 60°02' E 028°43'815.3
2017-May-23 00:00N 60°03' E 028°28'815.2
2017-May-22 23:30N 60°07' E 028°16'815.3
2017-May-22 23:00N 60°09' E 028°01'815.0
2017-May-22 22:30N 60°11' E 027°46'715.0
2017-May-22 22:00N 60°07' E 027°33'713.2
2017-May-22 21:30N 60°04' E 027°22'714.6
2017-May-22 21:00N 60°00' E 027°09'714.1
2017-May-22 20:30N 59°59' E 026°55'815.0
2017-May-22 20:00N 59°60' E 026°41'815.3
2017-May-22 19:30N 59°58' E 026°26'815.1
2017-May-22 19:00N 59°55' E 026°12'815.2
2017-May-22 18:30N 59°53' E 025°57'815.4
2017-May-22 17:58N 59°51' E 025°41'715.3
2017-May-22 17:30N 59°49' E 025°28'815.4
2017-May-22 17:00N 59°46' E 025°13'24 1.8
2017-May-22 04:11N 59°27' E 024°46'1 7.8
2017-May-22 04:00N 59°29' E 024°45'1412.5
2017-May-22 02:52N 59°30' E 024°17'615.7
2017-May-22 02:27N 59°30' E 024°04'715.3
2017-May-22 01:59N 59°30' E 023°50'815.4
2017-May-22 01:30N 59°30' E 023°35'815.7
2017-May-22 01:00N 59°30' E 023°20'917.2
2017-May-22 00:30N 59°29' E 023°03'1020.1
2017-May-22 00:00N 59°26' E 022°45'21915.4
2017-May-21 09:47N 56°40' E 018°12'615.2
2017-May-21 09:24N 56°37' E 018°04'1315.3
2017-May-21 08:33N 56°29' E 017°45'115.3
2017-May-21 08:30N 56°28' E 017°45'915.2
2017-May-21 07:55N 56°23' E 017°32'615.2
2017-May-21 07:31N 56°19' E 017°23'1215.3
2017-May-21 06:43N 56°11' E 017°07'415.1
2017-May-21 06:28N 56°09' E 017°01'715.2
2017-May-21 06:01N 56°05' E 016°51'815.2
2017-May-21 05:30N 56°01' E 016°39'815.3
2017-May-21 05:00N 55°58' E 016°27'815.5
2017-May-21 04:31N 55°54' E 016°15'815.5
2017-May-21 04:01N 55°50' E 016°03'815.4
2017-May-21 03:31N 55°46' E 015°51'815.4
2017-May-21 03:00N 55°43' E 015°39'815.4
2017-May-21 02:31N 55°39' E 015°27'815.5
2017-May-21 02:01N 55°35' E 015°15'815.3
2017-May-21 01:30N 55°32' E 015°03'815.3
2017-May-21 01:00N 55°28' E 014°51'815.4
2017-May-21 00:29N 55°24' E 014°39'715.4
2017-May-21 00:00N 55°18' E 014°31'715.2
2017-May-20 23:30N 55°12' E 014°23'815.5
2017-May-20 23:00N 55°06' E 014°14'815.2
2017-May-20 22:28N 55°00' E 014°03'715.6
2017-May-20 21:59N 54°58' E 013°51'1115.6
2017-May-20 21:18N 54°55' E 013°33'1615.7
2017-May-20 20:16N 54°50' E 013°07'415.7
2017-May-20 20:00N 54°49' E 012°60'815.5
2017-May-20 19:31N 54°46' E 012°47'815.5
2017-May-20 19:01N 54°42' E 012°35'36 2.5
2017-May-20 04:34N 54°11' E 012°06'1410.5
2017-May-20 03:16N 54°24' E 011°58'312.8
2017-May-20 03:00N 54°26' E 012°03'612.6
2017-May-20 02:30N 54°30' E 012°11'2614.7
2017-May-20 00:44N 54°48' E 012°43'416.0
2017-May-20 00:30N 54°49' E 012°49'816.6
2017-May-20 00:01N 54°52' E 013°03'1517.0
2017-May-19 23:07N 54°58' E 013°27'217.2
2017-May-19 23:00N 54°58' E 013°30'1117.0
2017-May-19 22:21N 55°01' E 013°49'616.6
2017-May-19 22:00N 55°03' E 013°59'816.0
2017-May-19 21:30N 55°08' E 014°09'816.4
2017-May-19 21:01N 55°15' E 014°18'816.7
2017-May-19 20:30N 55°21' E 014°27'917.1
2017-May-19 20:00N 55°27' E 014°39'816.7
2017-May-19 19:30N 55°31' E 014°51'816.8
2017-May-19 19:01N 55°35' E 015°04'816.9
2017-May-19 18:31N 55°39' E 015°17'917.2
2017-May-19 18:01N 55°44' E 015°30'917.2
2017-May-19 17:31N 55°48' E 015°43'816.9
2017-May-19 17:01N 55°53' E 015°56'816.9
2017-May-19 16:31N 55°57' E 016°09'816.7
2017-May-19 16:00N 56°01' E 016°22'816.6
2017-May-19 15:30N 56°06' E 016°34'816.0
2017-May-19 15:01N 56°11' E 016°45'1616.1
2017-May-19 14:01N 56°26' E 016°56'816.0
2017-May-19 13:30N 56°34' E 017°00'  
Track history (hours):
 
Tides and Currents Weather Stations Pressure Air Temp Water Temp Dewpoint Dewpoint Depression Visibility Wind Speed Wind Dir Waves Ship Positions

Aidamar

Last reported at 2017-May-29 03:22 UTC. Time now 2017-May-29 18:56 UTC.
Position N 59°30' E 024°01'.

Length 253 m; draft 7.3 m.

Type: Passenger vessel. MMSI: 247312900.

Date/timePositionNaut miles runAvg speedWind from/ knotsBaromVisibWave heightAir tempDewpointWater temp
2017-May-29 03:22N 59°30' E 024°01'614.6
2017-May-29 02:59N 59°30' E 023°50'714.4
2017-May-29 02:30N 59°30' E 023°37'714.2
2017-May-29 01:59N 59°30' E 023°22'714.4
2017-May-29 01:30N 59°29' E 023°09'714.5
2017-May-29 01:01N 59°28' E 022°55'21314.7
2017-May-28 10:31N 56°47' E 018°29'013.7
2017-May-28 10:30N 56°47' E 018°29'815.0
2017-May-28 09:57N 56°42' E 018°17'715.0
2017-May-28 09:30N 56°38' E 018°07'815.1
2017-May-28 09:00N 56°33' E 017°56'815.2
2017-May-28 08:30N 56°29' E 017°46'815.1
2017-May-28 07:59N 56°24' E 017°34'715.1
2017-May-28 07:30N 56°19' E 017°24'815.4
2017-May-28 07:00N 56°15' E 017°13'815.2
2017-May-28 06:30N 56°10' E 017°03'715.1
2017-May-28 06:01N 56°05' E 016°52'815.1
2017-May-28 05:30N 56°02' E 016°40'815.3
2017-May-28 05:00N 55°58' E 016°28'815.6
2017-May-28 04:30N 55°54' E 016°16'815.6
2017-May-28 04:01N 55°50' E 016°05'815.5
2017-May-28 03:30N 55°46' E 015°53'815.4
2017-May-28 03:00N 55°41' E 015°42'815.3
2017-May-28 02:31N 55°38' E 015°30'815.3
2017-May-28 02:00N 55°34' E 015°18'816.0
2017-May-28 01:31N 55°30' E 015°05'916.6
2017-May-28 01:00N 55°26' E 014°52'816.7
2017-May-28 00:30N 55°24' E 014°39'816.7
2017-May-28 00:00N 55°17' E 014°29'816.6
2017-May-27 23:30N 55°11' E 014°20'816.8
2017-May-27 23:00N 55°04' E 014°11'816.4
2017-May-27 22:31N 54°60' E 013°59'1016.9
2017-May-27 21:57N 54°57' E 013°44'715.8
2017-May-27 21:29N 54°54' E 013°31'1915.5
2017-May-27 20:16N 54°49' E 013°00'415.7
2017-May-27 20:00N 54°47' E 012°54'815.2
2017-May-27 19:28N 54°44' E 012°41'715.3
2017-May-27 19:00N 54°40' E 012°30'815.7
2017-May-27 18:30N 54°36' E 012°19'1515.6
2017-May-27 17:31N 54°22' E 012°08'115.5
2017-May-27 17:29N 54°21' E 012°08'11 0.8
2017-May-27 04:58N 54°11' E 012°06'1 1.1
2017-May-27 04:29N 54°11' E 012°05'15 8.9
2017-May-27 02:47N 54°26' E 012°05'413.3
2017-May-27 02:31N 54°28' E 012°10'2213.9
2017-May-27 00:58N 54°44' E 012°35'714.6
2017-May-27 00:29N 54°48' E 012°46'3015.8
2017-May-26 22:35N 54°58' E 013°35'216.1
2017-May-26 22:27N 54°59' E 013°38'715.9
2017-May-26 22:00N 55°01' E 013°50'714.8
2017-May-26 21:30N 55°04' E 014°02'714.6
2017-May-26 21:00N 55°09' E 014°11'815.9
2017-May-26 20:31N 55°15' E 014°20'815.4
2017-May-26 20:01N 55°21' E 014°28'714.8
2017-May-26 19:30N 55°27' E 014°38'917.1
2017-May-26 19:00N 55°31' E 014°51'612.9
2017-May-26 18:30N 55°34' E 015°01'815.1
2017-May-26 18:01N 55°38' E 015°12'815.3
2017-May-26 17:31N 55°42' E 015°24'815.4
2017-May-26 17:01N 55°46' E 015°36'815.3
2017-May-26 16:31N 55°49' E 015°48'815.5
2017-May-26 16:01N 55°53' E 016°00'815.5
2017-May-26 15:31N 55°56' E 016°12'815.5
2017-May-26 15:01N 56°00' E 016°24'1514.9
2017-May-26 14:01N 56°09' E 016°45'815.4
2017-May-26 13:31N 56°17' E 016°50'815.9
2017-May-26 13:01N 56°24' E 016°55'917.0
2017-May-26 12:30N 56°32' E 017°01'17515.7
2017-May-26 01:24N 59°07' E 019°31'716.9
2017-May-26 00:58N 59°14' E 019°39'816.9
2017-May-26 00:30N 59°20' E 019°46'1216.3
2017-May-25 23:47N 59°31' E 019°56'1214.8
2017-May-25 22:58N 59°42' E 019°48'714.6
2017-May-25 22:30N 59°45' E 019°36'714.8
2017-May-25 22:00N 59°46' E 019°21'714.1
2017-May-25 21:30N 59°43' E 019°08'714.5
2017-May-25 21:00N 59°40' E 018°56'510.7
2017-May-25 20:31N 59°36' E 018°48'610.9
2017-May-25 20:00N 59°34' E 018°38'5 9.6
2017-May-25 19:30N 59°31' E 018°30'511.1
2017-May-25 19:00N 59°26' E 018°24'510.0
2017-May-25 18:30N 59°22' E 018°27'5 9.1
2017-May-25 18:00N 59°22' E 018°18'5 9.6
2017-May-25 17:30N 59°20' E 018°09'1 1.2
2017-May-25 16:56N 59°21' E 018°08'0 0.0
2017-May-25 16:26N 59°21' E 018°08'0 0.0
2017-May-25 15:59N 59°21' E 018°08'0 0.0
2017-May-25 15:30N 59°21' E 018°08'0 0.0
2017-May-25 14:45N 59°21' E 018°08'0 0.0
2017-May-25 14:27N 59°21' E 018°08'0 0.0
2017-May-25 13:27N 59°21' E 018°08'0 0.0
2017-May-25 12:57N 59°21' E 018°08'0 0.0
2017-May-25 12:23N 59°21' E 018°08'0 0.0
2017-May-25 11:58N 59°21' E 018°08'0 0.0
2017-May-25 11:27N 59°21' E 018°08'0 0.0
2017-May-25 10:51N 59°21' E 018°08'0 0.0
2017-May-25 10:27N 59°21' E 018°08'0 0.0
2017-May-25 09:57N 59°21' E 018°08'0 0.0
2017-May-25 09:26N 59°21' E 018°08'0 0.0
2017-May-25 08:57N 59°21' E 018°08'0 0.0
2017-May-25 08:27N 59°21' E 018°08'0 0.0
2017-May-25 08:00N 59°21' E 018°08'0 0.7
2017-May-25 07:30N 59°21' E 018°08'4 7.9
2017-May-25 07:00N 59°22' E 018°16'5 9.6
2017-May-25 06:30N 59°22' E 018°25'4 7.4
2017-May-25 06:00N 59°25' E 018°24'610.1
2017-May-25 05:22N 59°31' E 018°30'4 9.7
2017-May-25 05:01N 59°33' E 018°36'610.6
2017-May-25 04:26N 59°36' E 018°46'512.1
2017-May-25 04:00N 59°39' E 018°54'611.5
2017-May-25 03:30N 59°42' E 019°04'815.7
2017-May-25 02:59N 59°45' E 019°19'510.0
2017-May-25 02:27N 59°47' E 019°29'714.8
2017-May-25 02:00N 59°48' E 019°42'814.3
2017-May-25 01:25N 59°42' E 019°55'4115.5
2017-May-24 22:45N 59°32' E 021°14'1016.7
2017-May-24 22:10N 59°30' E 021°33'316.3
2017-May-24 22:00N 59°30' E 021°38'816.3
2017-May-24 21:31N 59°29' E 021°54'1016.4
2017-May-24 20:55N 59°26' E 022°12'3116.0
2017-May-24 18:57N 59°36' E 023°11'716.5
2017-May-24 18:30N 59°38' E 023°25'916.3
2017-May-24 17:59N 59°41' E 023°41'816.4
2017-May-24 17:31N 59°44' E 023°56'816.5
2017-May-24 17:00N 59°47' E 024°11'1016.4
2017-May-24 16:24N 59°51' E 024°29'57 3.7
2017-May-24 01:14N 59°60' E 026°21'416.1
2017-May-24 01:00N 60°01' E 026°29'1015.7
2017-May-24 00:23N 60°01' E 026°48'716.1
2017-May-23 23:59N 59°59' E 027°00'816.0
2017-May-23 23:30N 60°03' E 027°14'816.3
2017-May-23 23:00N 60°07' E 027°29'816.2
2017-May-23 22:30N 60°11' E 027°42'815.4
2017-May-23 22:00N 60°11' E 027°58'816.2
2017-May-23 21:30N 60°08' E 028°13'815.8
2017-May-23 21:00N 60°04' E 028°27'815.8
2017-May-23 20:31N 60°03' E 028°42'816.1
2017-May-23 20:01N 60°02' E 028°58'816.1
2017-May-23 19:30N 60°02' E 029°15'1612.6
2017-May-23 18:14N 59°59' E 029°46'2 9.1
2017-May-23 17:59N 59°57' E 029°50'510.9
2017-May-23 17:30N 59°55' E 029°59'5 9.1
2017-May-23 17:00N 59°57' E 030°08'2 3.6
2017-May-23 16:29N 59°57' E 030°12'0 0.0
2017-May-23 15:59N 59°57' E 030°12'0 0.0
2017-May-23 15:29N 59°57' E 030°12'0 0.0
2017-May-23 14:59N 59°57' E 030°12'0 0.0
2017-May-23 13:58N 59°57' E 030°12'0 0.0
2017-May-23 13:28N 59°57' E 030°12'0 0.0
2017-May-23 12:58N 59°57' E 030°12'0 0.0
2017-May-23 12:30N 59°57' E 030°12'0 0.0
2017-May-23 11:57N 59°57' E 030°12'0 0.0
2017-May-23 11:30N 59°57' E 030°12'0 0.0
2017-May-23 10:57N 59°57' E 030°12'0 0.0
2017-May-23 10:30N 59°57' E 030°12'0 0.0
2017-May-23 10:01N 59°57' E 030°12'0 0.0
2017-May-23 09:29N 59°57' E 030°12'0 0.0
2017-May-23 08:55N 59°57' E 030°12'0 0.0
2017-May-23 08:30N 59°57' E 030°12'0 0.0
2017-May-23 08:00N 59°57' E 030°12'0 0.0
2017-May-23 07:28N 59°57' E 030°12'0 0.0
2017-May-23 06:55N 59°57' E 030°12'0 0.0
2017-May-23 06:25N 59°57' E 030°12'0 0.0
2017-May-23 05:58N 59°57' E 030°12'0 0.0
2017-May-23 05:25N 59°57' E 030°12'0 0.0
2017-May-23 04:58N 59°57' E 030°12'0 0.0
2017-May-23 04:30N 59°57' E 030°12'1 2.6
2017-May-23 04:00N 59°57' E 030°09'510.2
2017-May-23 03:30N 59°55' E 029°59'611.7
2017-May-23 03:00N 59°58' E 029°48'5 9.6
2017-May-23 02:30N 59°60' E 029°40'811.8
2017-May-23 01:50N 60°01' E 029°24'1215.3
2017-May-23 01:04N 60°02' E 029°01'515.6
2017-May-23 00:44N 60°02' E 028°51'415.9
2017-May-23 00:30N 60°02' E 028°43'815.3
2017-May-23 00:00N 60°03' E 028°28'815.2
2017-May-22 23:30N 60°07' E 028°16'815.3
2017-May-22 23:00N 60°09' E 028°01'815.0
2017-May-22 22:30N 60°11' E 027°46'715.0
2017-May-22 22:00N 60°07' E 027°33'713.2
2017-May-22 21:30N 60°04' E 027°22'714.6
2017-May-22 21:00N 60°00' E 027°09'714.1
2017-May-22 20:30N 59°59' E 026°55'815.0
2017-May-22 20:00N 59°60' E 026°41'815.3
2017-May-22 19:30N 59°58' E 026°26'815.1
2017-May-22 19:00N 59°55' E 026°12'815.2
2017-May-22 18:30N 59°53' E 025°57'815.4
2017-May-22 17:58N 59°51' E 025°41'715.3
2017-May-22 17:30N 59°49' E 025°28'815.4
2017-May-22 17:00N 59°46' E 025°13'24 1.8
2017-May-22 04:11N 59°27' E 024°46'1 7.8
2017-May-22 04:00N 59°29' E 024°45'1412.5
2017-May-22 02:52N 59°30' E 024°17'615.7
2017-May-22 02:27N 59°30' E 024°04'715.3
2017-May-22 01:59N 59°30' E 023°50'815.4
2017-May-22 01:30N 59°30' E 023°35'815.7
2017-May-22 01:00N 59°30' E 023°20'917.2
2017-May-22 00:30N 59°29' E 023°03'1020.1
2017-May-22 00:00N 59°26' E 022°45'21915.4
2017-May-21 09:47N 56°40' E 018°12'615.2
2017-May-21 09:24N 56°37' E 018°04'1315.3
2017-May-21 08:33N 56°29' E 017°45'115.3
2017-May-21 08:30N 56°28' E 017°45'915.2
2017-May-21 07:55N 56°23' E 017°32'615.2
2017-May-21 07:31N 56°19' E 017°23'1215.3
2017-May-21 06:43N 56°11' E 017°07'415.1
2017-May-21 06:28N 56°09' E 017°01'715.2
2017-May-21 06:01N 56°05' E 016°51'815.2
2017-May-21 05:30N 56°01' E 016°39'815.3
2017-May-21 05:00N 55°58' E 016°27'815.5
2017-May-21 04:31N 55°54' E 016°15'815.5
2017-May-21 04:01N 55°50' E 016°03'815.4
2017-May-21 03:31N 55°46' E 015°51'815.4
2017-May-21 03:00N 55°43' E 015°39'815.4
2017-May-21 02:31N 55°39' E 015°27'815.5
2017-May-21 02:01N 55°35' E 015°15'815.3
2017-May-21 01:30N 55°32' E 015°03'815.3
2017-May-21 01:00N 55°28' E 014°51'815.4
2017-May-21 00:29N 55°24' E 014°39'715.4
2017-May-21 00:00N 55°18' E 014°31'715.2
2017-May-20 23:30N 55°12' E 014°23'815.5
2017-May-20 23:00N 55°06' E 014°14'815.2
2017-May-20 22:28N 55°00' E 014°03'715.6
2017-May-20 21:59N 54°58' E 013°51'1115.6
2017-May-20 21:18N 54°55' E 013°33'1615.7
2017-May-20 20:16N 54°50' E 013°07'415.7
2017-May-20 20:00N 54°49' E 012°60'815.5
2017-May-20 19:31N 54°46' E 012°47'815.5
2017-May-20 19:01N 54°42' E 012°35'36 2.5
2017-May-20 04:34N 54°11' E 012°06'1410.5
2017-May-20 03:16N 54°24' E 011°58'312.8
2017-May-20 03:00N 54°26' E 012°03'612.6
2017-May-20 02:30N 54°30' E 012°11'2614.7
2017-May-20 00:44N 54°48' E 012°43'416.0
2017-May-20 00:30N 54°49' E 012°49'816.6
2017-May-20 00:01N 54°52' E 013°03'1517.0
2017-May-19 23:07N 54°58' E 013°27'217.2
2017-May-19 23:00N 54°58' E 013°30'1117.0
2017-May-19 22:21N 55°01' E 013°49'616.6
2017-May-19 22:00N 55°03' E 013°59'816.0
2017-May-19 21:30N 55°08' E 014°09'816.4
2017-May-19 21:01N 55°15' E 014°18'816.7
2017-May-19 20:30N 55°21' E 014°27'917.1
2017-May-19 20:00N 55°27' E 014°39'816.7
2017-May-19 19:30N 55°31' E 014°51'816.8
2017-May-19 19:01N 55°35' E 015°04'816.9
2017-May-19 18:31N 55°39' E 015°17'917.2
2017-May-19 18:01N 55°44' E 015°30'917.2
2017-May-19 17:31N 55°48' E 015°43'816.9
2017-May-19 17:01N 55°53' E 015°56'816.9
2017-May-19 16:31N 55°57' E 016°09'816.7
2017-May-19 16:00N 56°01' E 016°22'816.6
2017-May-19 15:30N 56°06' E 016°34'816.0
2017-May-19 15:01N 56°11' E 016°45'1616.1
2017-May-19 14:01N 56°26' E 016°56'816.0
2017-May-19 13:30N 56°34' E 017°00'  

Dump ship's entire track history